Guaiba, Brazil
Current Conditions -  °F | °C
As of 3:00 PM on Friday 31 Oct 2014 (Local Time) from SBPA Reporting Station
Broken Clouds Broken Clouds  
Wind Chill: 84°   Ceiling: 4000
Heat Index: 86°   Visibility: 6mi
Dew Point: 66°   Wind: 9mph
Humidity: 55%   Direction: 120°ESE
Pressure: 29.83"   Gusts: NA
Location:  30.11°S, 51.32°W
Report Text: SBPA 311700Z 12008KT 9999 BKN040 29/19 Q1010
Loading
Personal Weather Stations






























Interactive Weather Map
Tropical Storm Tracking
New forecast layout! Learn more

10-Day Weather Forecast

Advertisements
Track Severe Weather on mobile